Glassell, California
Current Conditions -  °F | °C
As of 1:47 AM on Saturday 20 Dec 2014 (Local Time) from KCQT Reporting Station
Clear Clear  
Wind Chill: 52°   Ceiling: Unl
Heat Index: 52°   Visibility: 10mi
Dew Point: 47°   Wind: 0mph
Humidity: 83%   Direction: NA
Pressure: 30.14"   Gusts: NA
Location:  34.1092°N, 118.228°W
Report Text: KCQT 200947Z AUTO 00000KT 10SM CLR 11/08 A3014 RMK AO2 SLP207 T01110083
Loading
Personal Weather Stations






























Interactive Weather Map New forecast layout! Learn more

10-Day Weather Forecast

Advertisements
Track Severe Weather on mobile